Meeks, Texas
Current Conditions -  °F | °C
As of 2:55 AM on Monday 22 Dec 2014 (Local Time) from KT35 Reporting Station
Overcast Overcast  
Wind Chill: 57°   Ceiling: 2700
Heat Index: 57°   Visibility: 10mi
Dew Point: 54°   Wind: 15mph
Humidity: 89%   Direction: 200°SSW
Pressure: 29.75"   Gusts: 18mph
Location:  30.9882°N, 97.103°W
Report Text: KT35 220855Z AUTO 20013G16KT 10SM SCT013 OVC027 14/12 A2975 RMK AO2 T01400122
Loading
Personal Weather Stations






























Interactive Weather Map New forecast layout! Learn more

10-Day Weather Forecast

Advertisements
Track Severe Weather on mobile